Time;durP1;ratioP1;P1;durP2;ratioP2;P2;SDS_P1;SDS_P2;PMS_P1;PMS_P2;Temp;Humidity;BMP_temperature;BMP_pressure;BME280_temperature;BME280_humidity;BME280_pressure;Samples;Min_cycle;Max_cycle;Signal;HPM_P1;HPM_P2
2022/04/20 00:01:42;;;;;;;24.80;22.63;;;4.40;99.90;;;;;;4998387;28;20050;-76
2022/04/20 00:04:10;;;;;;;24.65;22.95;;;4.40;99.90;;;;;;4989085;28;20049;-74
2022/04/20 00:06:37;;;;;;;25.10;23.40;;;4.40;99.90;;;;;;4991794;28;20636;-74
2022/04/20 00:09:04;;;;;;;24.05;22.45;;;4.40;99.90;;;;;;5004940;28;20096;-75
2022/04/20 00:11:31;;;;;;;23.20;21.80;;;4.30;99.90;;;;;;4988218;28;20038;-74
2022/04/20 00:13:58;;;;;;;24.40;22.60;;;4.20;99.90;;;;;;4994429;28;20067;-75
2022/04/20 00:16:24;;;;;;;24.17;22.33;;;4.20;99.90;;;;;;4972352;28;20072;-75
2022/04/20 00:18:51;;;;;;;23.80;22.02;;;4.10;99.90;;;;;;4988829;28;20465;-74
2022/04/20 00:21:25;;;;;;;24.67;22.80;;;4.10;99.90;;;;;;4990128;28;20054;-74
2022/04/20 00:23:51;;;;;;;23.90;22.20;;;4.00;99.90;;;;;;4971126;28;20053;-75
2022/04/20 00:26:18;;;;;;;24.73;23.02;;;3.90;99.90;;;;;;4994350;28;20486;-74
2022/04/20 00:28:45;;;;;;;23.75;22.15;;;3.90;99.90;;;;;;5004551;28;20045;-75
2022/04/20 00:31:12;;;;;;;24.27;22.63;;;3.90;99.90;;;;;;5006403;28;20048;-75
2022/04/20 00:33:39;;;;;;;24.60;22.88;;;3.90;99.90;;;;;;5001801;28;20522;-75
2022/04/20 00:36:05;;;;;;;24.10;22.40;;;3.90;99.90;;;;;;4990389;28;20125;-74
2022/04/20 00:38:32;;;;;;;24.05;22.35;;;3.80;99.90;;;;;;4995338;28;20471;-75
2022/04/20 00:40:59;;;;;;;24.08;22.48;;;3.60;99.90;;;;;;4971353;28;20046;-75
2022/04/20 00:43:28;;;;;;;23.55;22.05;;;3.70;99.90;;;;;;4988397;28;20446;-75
2022/04/20 00:45:56;;;;;;;23.45;21.65;;;3.60;99.90;;;;;;4987802;28;20042;-74
2022/04/20 00:48:23;;;;;;;24.38;22.77;;;3.60;99.90;;;;;;4972725;28;20490;-75
2022/04/20 00:50:50;;;;;;;23.98;22.38;;;3.60;99.90;;;;;;4987386;28;20070;-75
2022/04/20 00:53:17;;;;;;;23.17;21.67;;;3.60;99.90;;;;;;4987950;28;20049;-75
2022/04/20 00:55:45;;;;;;;23.17;21.40;;;3.50;99.90;;;;;;4989563;28;20046;-75
2022/04/20 00:58:13;;;;;;;23.60;22.00;;;3.50;99.90;;;;;;5002086;28;20056;-74
2022/04/20 01:00:40;;;;;;;23.25;21.75;;;3.50;99.90;;;;;;5005476;28;20104;-75
2022/04/20 01:03:07;;;;;;;22.92;21.42;;;3.30;99.90;;;;;;5007364;28;20081;-75
2022/04/20 01:05:57;;;;;;;23.90;22.40;;;3.30;99.90;;;;;;4970746;28;20659;-75
2022/04/20 01:08:38;;;;;;;23.98;21.88;;;3.20;99.90;;;;;;4985647;28;20046;-74
2022/04/20 01:11:31;;;;;;;24.00;22.40;;;3.20;99.90;;;;;;4988737;28;20050;-75
2022/04/20 01:14:21;;;;;;;24.13;22.38;;;3.20;99.90;;;;;;4986536;28;20157;-75
2022/04/20 01:17:02;;;;;;;23.25;21.63;;;3.30;99.90;;;;;;4968214;28;20046;-74
2022/04/20 01:20:02;;;;;;;23.92;22.33;;;3.20;99.90;;;;;;4961597;28;20145;-75
2022/04/20 01:22:59;;;;;;;23.00;21.40;;;3.00;99.90;;;;;;4955002;28;20061;-74
2022/04/20 01:25:44;;;;;;;24.25;22.45;;;3.00;99.90;;;;;;4981785;28;20058;-75
2022/04/20 01:28:33;;;;;;;24.23;22.33;;;3.00;99.90;;;;;;4989452;28;20053;-75
2022/04/20 01:31:19;;;;;;;22.90;21.27;;;3.00;99.90;;;;;;4990372;28;20045;-74
2022/04/20 01:34:03;;;;;;;23.33;21.75;;;3.00;99.90;;;;;;5007538;28;20565;-75
2022/04/20 01:36:29;;;;;;;22.70;21.10;;;2.90;99.90;;;;;;4996272;28;20076;-74
2022/04/20 01:38:56;;;;;;;21.98;20.25;;;2.90;99.90;;;;;;4997208;28;20534;-75
2022/04/20 01:41:23;;;;;;;21.80;20.40;;;2.80;99.90;;;;;;4987523;28;20144;-74
2022/04/20 01:43:50;;;;;;;22.55;21.05;;;2.90;99.90;;;;;;4987654;28;20057;-74
2022/04/20 01:46:23;;;;;;;23.95;22.02;;;2.70;99.90;;;;;;4997549;28;20628;-74
2022/04/20 01:49:09;;;;;;;22.95;21.17;;;2.70;99.90;;;;;;4990105;28;20057;-75
2022/04/20 01:51:56;;;;;;;22.70;21.10;;;2.70;99.90;;;;;;4989069;28;20096;-74
2022/04/20 01:54:32;;;;;;;22.73;21.02;;;2.70;99.90;;;;;;4988930;28;20042;-75
2022/04/20 01:57:19;;;;;;;22.73;21.23;;;2.60;99.90;;;;;;4992508;28;20048;-75
2022/04/20 02:00:05;;;;;;;23.15;21.38;;;2.60;99.90;;;;;;5002298;28;20083;-74
2022/04/20 02:02:54;;;;;;;21.75;20.40;;;2.60;99.90;;;;;;4990344;28;20385;-74
2022/04/20 02:05:23;;;;;;;22.48;20.67;;;2.50;99.90;;;;;;4986670;28;20057;-75
2022/04/20 02:08:13;;;;;;;21.25;19.95;;;2.50;99.90;;;;;;4985826;28;20042;-75
2022/04/20 02:10:59;;;;;;;22.80;21.02;;;2.60;99.90;;;;;;5002329;28;20125;-74
2022/04/20 02:13:29;;;;;;;21.63;20.02;;;2.60;99.90;;;;;;5003160;28;20046;-74
2022/04/20 02:15:59;;;;;;;21.08;19.70;;;2.60;99.90;;;;;;5002766;28;20196;-76
2022/04/20 02:18:46;;;;;;;22.20;20.60;;;2.50;99.90;;;;;;4984373;28;20566;-75
2022/04/20 02:21:28;;;;;;;21.75;20.15;;;2.50;99.90;;;;;;4962359;28;20046;-75
2022/04/20 02:23:55;;;;;;;21.10;19.80;;;2.40;99.90;;;;;;4969951;28;20053;-75
2022/04/20 02:26:21;;;;;;;21.55;20.15;;;2.40;99.90;;;;;;4992282;28;20592;-74
2022/04/20 02:28:48;;;;;;;21.35;19.73;;;2.50;99.90;;;;;;4999742;28;20637;-75
2022/04/20 02:31:16;;;;;;;21.50;20.00;;;2.50;99.90;;;;;;4993000;28;20053;-75
2022/04/20 02:33:44;;;;;;;22.02;20.40;;;2.40;99.90;;;;;;4970901;28;20140;-75
2022/04/20 02:36:11;;;;;;;21.45;20.05;;;2.40;99.90;;;;;;4992411;28;20045;-75
2022/04/20 02:38:39;;;;;;;22.15;20.60;;;2.30;99.90;;;;;;4975207;28;20170;-74
2022/04/20 02:41:07;;;;;;;22.02;20.30;;;2.20;99.90;;;;;;4985753;28;20364;-75
2022/04/20 02:43:34;;;;;;;21.52;20.13;;;2.20;99.90;;;;;;4986981;28;20046;-74
2022/04/20 02:46:01;;;;;;;23.23;21.50;;;2.20;99.90;;;;;;4985888;28;20054;-74
2022/04/20 02:48:28;;;;;;;22.55;21.02;;;2.20;99.90;;;;;;4986638;28;20058;-74
2022/04/20 02:50:55;;;;;;;22.65;21.00;;;2.30;99.90;;;;;;4985025;28;20149;-75
2022/04/20 02:53:23;;;;;;;22.63;20.90;;;2.20;99.90;;;;;;4970572;28;20120;-75
2022/04/20 02:55:49;;;;;;;21.92;20.45;;;2.20;99.90;;;;;;5006220;28;20743;-74
2022/04/20 02:58:18;;;;;;;22.90;21.20;;;2.20;99.90;;;;;;5001299;28;20056;-74
2022/04/20 03:00:50;;;;;;;22.30;20.75;;;2.10;99.90;;;;;;5004675;28;20523;-75
2022/04/20 03:03:25;;;;;;;22.88;21.13;;;2.10;99.90;;;;;;5007792;28;20057;-75
2022/04/20 03:05:56;;;;;;;21.98;20.48;;;2.10;99.90;;;;;;4984338;28;20050;-75
2022/04/20 03:08:24;;;;;;;21.25;19.85;;;2.10;99.90;;;;;;4985832;28;20513;-75
2022/04/20 03:10:52;;;;;;;21.85;20.35;;;2.00;99.90;;;;;;5001615;28;20057;-75
2022/04/20 03:13:21;;;;;;;22.10;20.42;;;2.00;99.90;;;;;;4985951;28;20046;-75
2022/04/20 03:15:49;;;;;;;22.50;20.88;;;2.10;99.90;;;;;;4991685;28;20471;-74
2022/04/20 03:18:19;;;;;;;21.52;19.92;;;2.10;99.90;;;;;;4989997;28;20140;-75
2022/04/20 03:20:46;;;;;;;20.65;19.23;;;2.00;99.90;;;;;;4985194;28;20062;-75
2022/04/20 03:23:14;;;;;;;20.80;19.42;;;2.00;99.90;;;;;;4986079;28;20085;-74
2022/04/20 03:25:46;;;;;;;20.90;19.30;;;1.90;99.90;;;;;;4975494;28;20103;-75
2022/04/20 03:28:40;;;;;;;21.30;19.55;;;1.90;99.90;;;;;;4995102;28;20779;-75
2022/04/20 03:31:07;;;;;;;21.15;19.65;;;1.90;99.90;;;;;;4972267;28;20104;-75
2022/04/20 03:33:37;;;;;;;20.73;19.23;;;1.90;99.90;;;;;;4988451;28;20058;-75
2022/04/20 03:36:06;;;;;;;22.08;20.23;;;1.90;99.90;;;;;;4974653;28;20034;-76
2022/04/20 03:38:33;;;;;;;21.15;19.85;;;1.90;99.90;;;;;;4997811;28;20058;-75
2022/04/20 03:41:03;;;;;;;22.10;20.60;;;1.80;99.90;;;;;;4990830;28;20097;-76
2022/04/20 03:43:29;;;;;;;21.23;19.70;;;1.60;99.90;;;;;;4991321;28;20057;-75
2022/04/20 03:45:56;;;;;;;21.38;19.90;;;1.60;99.90;;;;;;4988123;28;20696;-75
2022/04/20 03:48:23;;;;;;;22.25;20.30;;;1.50;99.90;;;;;;5007004;28;20049;-75
2022/04/20 03:50:50;;;;;;;22.58;20.65;;;1.50;99.90;;;;;;4986934;28;20088;-76
2022/04/20 03:53:18;;;;;;;21.75;20.05;;;1.40;99.90;;;;;;4985781;28;20073;-75
2022/04/20 03:55:48;;;;;;;21.42;19.83;;;1.50;99.90;;;;;;4973487;28;20050;-76
2022/04/20 03:58:15;;;;;;;22.27;20.30;;;1.50;99.90;;;;;;5006257;28;20155;-76
2022/04/20 04:00:43;;;;;;;21.80;20.08;;;1.50;99.90;;;;;;4973017;28;20050;-76
2022/04/20 04:03:11;;;;;;;21.08;19.67;;;1.50;99.90;;;;;;4969315;28;20050;-75
2022/04/20 04:05:40;;;;;;;21.05;19.55;;;1.40;99.90;;;;;;4972875;28;20469;-75
2022/04/20 04:08:27;;;;;;;21.52;19.70;;;1.40;99.90;;;;;;5002035;28;20041;-76
2022/04/20 04:10:53;;;;;;;22.08;20.40;;;1.40;99.90;;;;;;4975033;28;20489;-75
2022/04/20 04:13:21;;;;;;;23.17;21.20;;;1.30;99.90;;;;;;4984962;28;20138;-75
2022/04/20 04:15:53;;;;;;;21.42;19.80;;;1.40;99.90;;;;;;4976281;28;20120;-75
2022/04/20 04:18:22;;;;;;;21.73;19.92;;;1.60;99.90;;;;;;4988571;28;20112;-75
2022/04/20 04:20:50;;;;;;;21.63;19.50;;;1.60;99.90;;;;;;4987092;28;20052;-75
2022/04/20 04:23:17;;;;;;;21.65;19.48;;;1.60;99.90;;;;;;4972822;28;20072;-75
2022/04/20 04:25:55;;;;;;;22.13;20.10;;;1.50;99.90;;;;;;4977247;28;20049;-75
2022/04/20 04:28:35;;;;;;;22.55;20.35;;;1.50;99.90;;;;;;4992875;28;20505;-75
2022/04/20 04:31:02;;;;;;;22.35;20.75;;;1.40;99.90;;;;;;4983169;28;20062;-75
2022/04/20 04:33:31;;;;;;;21.75;20.00;;;1.40;99.90;;;;;;4984375;28;20057;-76
2022/04/20 04:35:58;;;;;;;24.52;22.38;;;1.40;99.90;;;;;;4989894;28;20037;-75
2022/04/20 04:38:26;;;;;;;23.75;21.90;;;1.30;99.90;;;;;;4996651;28;20049;-76
2022/04/20 04:40:54;;;;;;;23.75;21.60;;;1.40;99.90;;;;;;4987465;28;20072;-76
2022/04/20 04:43:25;;;;;;;24.05;22.15;;;1.40;99.90;;;;;;4985087;28;20058;-76
2022/04/20 04:48:48;;;;;;;22.13;20.57;;;1.40;99.90;;;;;;4968268;28;20101;-76
2022/04/20 04:51:16;;;;;;;21.83;20.38;;;1.40;99.90;;;;;;4985278;28;20288;-75
2022/04/20 04:53:44;;;;;;;23.08;21.33;;;1.40;99.90;;;;;;4987415;28;20046;-75
2022/04/20 04:56:31;;;;;;;23.30;21.33;;;1.50;99.90;;;;;;4994729;28;20045;-76
2022/04/20 04:58:58;;;;;;;22.90;21.13;;;1.40;99.90;;;;;;4981657;28;20054;-75
2022/04/20 05:01:27;;;;;;;24.45;22.20;;;1.40;99.90;;;;;;5001446;28;20061;-76
2022/04/20 05:03:57;;;;;;;26.48;23.80;;;1.40;99.90;;;;;;4985080;28;20610;-76
2022/04/20 05:06:24;;;;;;;25.25;23.45;;;1.40;99.90;;;;;;4970648;28;20717;-76
2022/04/20 05:09:10;;;;;;;25.70;23.10;;;1.40;99.90;;;;;;5001603;28;20053;-75
2022/04/20 05:11:40;;;;;;;24.13;22.35;;;1.60;99.90;;;;;;4986387;28;20451;-75
2022/04/20 05:14:10;;;;;;;24.25;22.40;;;1.80;99.90;;;;;;4972386;28;20045;-75
2022/04/20 05:16:39;;;;;;;25.08;22.88;;;1.80;99.90;;;;;;5004818;28;20683;-76
2022/04/20 05:19:09;;;;;;;23.55;21.70;;;1.90;99.90;;;;;;5005017;28;20267;-76
2022/04/20 05:21:37;;;;;;;24.75;23.13;;;2.00;99.90;;;;;;5004234;28;20061;-76
2022/04/20 05:24:05;;;;;;;24.50;22.83;;;1.90;99.90;;;;;;4987784;28;20226;-76
2022/04/20 05:26:34;;;;;;;25.70;23.80;;;2.00;99.90;;;;;;4989980;28;20056;-76
2022/04/20 05:29:02;;;;;;;27.40;25.15;;;2.10;99.90;;;;;;4991963;28;20058;-76
2022/04/20 05:31:34;;;;;;;27.55;25.33;;;2.20;99.90;;;;;;4985048;28;20121;-76
2022/04/20 05:34:03;;;;;;;24.92;23.00;;;2.30;99.90;;;;;;4986174;28;20614;-76
2022/04/20 05:41:39;;;;;;;26.60;24.60;;;2.50;99.90;;;;;;4984914;28;20137;-76
2022/04/20 05:42:05;;;;;;;26.33;23.90;;;2.80;99.90;;;;;;4984425;28;20069;-76
2022/04/20 05:44:32;;;;;;;25.73;23.83;;;2.80;99.90;;;;;;4985232;28;20073;-77
2022/04/20 05:46:58;;;;;;;25.77;23.70;;;2.90;99.90;;;;;;4968375;28;20759;-76
2022/04/20 05:49:27;;;;;;;25.02;23.20;;;3.00;99.90;;;;;;4984062;28;20053;-76
2022/04/20 05:51:54;;;;;;;25.65;23.50;;;3.10;99.90;;;;;;4968459;28;20096;-76
2022/04/20 05:54:23;;;;;;;27.77;25.23;;;3.10;99.90;;;;;;4985371;28;20088;-76
2022/04/20 05:56:50;;;;;;;25.98;24.08;;;3.20;99.90;;;;;;4972456;28;20164;-76
2022/04/20 05:59:17;;;;;;;26.25;23.70;;;3.20;99.90;;;;;;4999238;28;20061;-76
2022/04/20 06:01:44;;;;;;;25.65;23.60;;;3.40;99.90;;;;;;4970905;28;20046;-76
2022/04/20 06:04:19;;;;;;;26.63;24.42;;;3.50;99.90;;;;;;4979974;28;20077;-76
2022/04/20 06:07:01;;;;;;;27.42;24.60;;;3.50;99.90;;;;;;5001584;28;20128;-76
2022/04/20 06:09:33;;;;;;;24.17;22.48;;;3.70;99.90;;;;;;4984548;28;20061;-76
2022/04/20 06:12:12;;;;;;;24.98;22.70;;;3.80;99.90;;;;;;5001878;28;20042;-75
2022/04/20 06:14:54;;;;;;;25.08;22.95;;;4.00;99.90;;;;;;4971262;28;20123;-76
2022/04/20 06:17:39;;;;;;;24.10;21.95;;;4.20;99.90;;;;;;4987311;28;20056;-76
2022/04/20 06:20:09;;;;;;;25.15;23.15;;;4.40;99.90;;;;;;4984493;28;20041;-76
2022/04/20 06:22:56;;;;;;;24.90;23.08;;;4.60;99.90;;;;;;4982004;28;20137;-76
2022/04/20 06:25:47;;;;;;;27.20;25.10;;;4.80;99.90;;;;;;4969671;28;20053;-77
2022/04/20 06:28:37;;;;;;;26.42;24.67;;;5.20;99.90;;;;;;4983433;28;20563;-77
2022/04/20 06:31:13;;;;;;;26.92;24.90;;;5.40;99.90;;;;;;5000545;28;20145;-77
2022/04/20 06:33:40;;;;;;;27.30;24.90;;;5.60;99.90;;;;;;4985521;28;20050;-76
2022/04/20 06:36:32;;;;;;;28.23;26.10;;;5.90;99.90;;;;;;4987725;28;20078;-76
2022/04/20 06:39:19;;;;;;;30.50;27.98;;;6.20;99.90;;;;;;4981579;28;20145;-77
2022/04/20 06:42:01;;;;;;;30.58;28.15;;;6.60;99.90;;;;;;4985348;28;20312;-76
2022/04/20 06:44:47;;;;;;;;;;;7.20;99.90;;;;;;4989787;28;20068;-76
2022/04/20 06:47:34;;;;;;;28.60;26.23;;;7.90;99.90;;;;;;4985291;28;20002;-77
2022/04/20 06:50:12;;;;;;;26.90;25.15;;;8.80;99.90;;;;;;4969352;28;20050;-76
2022/04/20 06:58:31;;;;;;;;;;;10.40;99.90;;;;;;4993306;28;20062;-76
2022/04/20 07:01:06;;;;;;;26.88;25.20;;;10.40;99.90;;;;;;4973601;28;20036;-77
2022/04/20 07:03:38;;;;;;;28.08;26.17;;;10.10;99.90;;;;;;4971356;28;20054;-76
2022/04/20 07:06:33;;;;;;;27.73;25.92;;;10.20;99.90;;;;;;4970332;28;20511;-76
2022/04/20 07:09:14;;;;;;;28.38;26.77;;;10.50;99.90;;;;;;4978690;28;20057;-76
2022/04/20 07:12:10;;;;;;;28.42;26.60;;;10.50;99.90;;;;;;4997418;28;20042;-76
2022/04/20 07:14:37;;;;;;;26.45;25.00;;;10.90;99.90;;;;;;4980419;28;20143;-76
2022/04/20 07:17:06;;;;;;;29.42;27.42;;;10.90;99.90;;;;;;5008018;28;20063;-76
2022/04/20 07:19:41;;;;;;;30.67;28.58;;;11.20;99.90;;;;;;5009942;28;20041;-76
2022/04/20 07:22:24;;;;;;;30.38;28.67;;;11.70;99.90;;;;;;4988227;28;20046;-76
2022/04/20 07:25:15;;;;;;;29.80;28.20;;;12.10;99.90;;;;;;4986755;28;20054;-76
2022/04/20 07:28:14;;;;;;;30.98;29.17;;;12.00;99.90;;;;;;4957042;28;20282;-76
2022/04/20 07:31:05;;;;;;;30.90;29.00;;;11.80;99.90;;;;;;4989160;28;20033;-75
2022/04/20 07:33:50;;;;;;;;;;;11.60;99.90;;;;;;4993740;28;20188;-75
2022/04/20 07:36:27;;;;;;;33.63;31.65;;;11.80;99.90;;;;;;4995437;28;19999;-76
2022/04/20 07:39:00;;;;;;;33.10;31.20;;;11.40;99.90;;;;;;5002978;28;20053;-75
2022/04/20 07:41:45;;;;;;;34.65;32.47;;;11.90;99.90;;;;;;4992424;28;20056;-76
2022/04/20 07:44:26;;;;;;;34.38;32.22;;;11.80;99.90;;;;;;4989482;28;20053;-76
2022/04/20 07:47:16;;;;;;;33.92;31.55;;;12.20;99.90;;;;;;4990588;28;20054;-76
2022/04/20 07:50:18;;;;;;;33.70;31.60;;;12.10;99.90;;;;;;4989863;28;20073;-76
2022/04/20 07:52:54;;;;;;;33.90;32.10;;;12.90;99.90;;;;;;4988314;28;20053;-76
2022/04/20 07:55:37;;;;;;;34.67;32.58;;;13.20;99.90;;;;;;4989198;28;20094;-76
2022/04/20 07:58:16;;;;;;;35.03;32.92;;;12.90;99.90;;;;;;4994230;28;20183;-76
2022/04/20 08:00:57;;;;;;;33.38;31.48;;;12.60;99.90;;;;;;5009765;28;20130;-76
2022/04/20 08:04:03;;;;;;;34.63;32.47;;;12.10;99.90;;;;;;4976277;28;20058;-75
2022/04/20 08:07:05;;;;;;;33.90;31.92;;;12.60;99.90;;;;;;4963691;28;20129;-76
2022/04/20 08:09:35;;;;;;;34.80;32.60;;;13.20;99.90;;;;;;4978722;28;20042;-76
2022/04/20 08:12:01;;;;;;;34.28;31.75;;;13.20;99.90;;;;;;4989747;28;20046;-76
2022/04/20 08:14:29;;;;;;;35.92;33.83;;;13.40;99.90;;;;;;4988870;28;20050;-76
2022/04/20 08:17:03;;;;;;;34.47;32.30;;;13.10;99.90;;;;;;4990025;28;20042;-76
2022/04/20 08:19:30;;;;;;;33.67;31.73;;;13.60;99.90;;;;;;4990643;28;20072;-77
2022/04/20 08:22:17;;;;;;;33.05;31.00;;;13.90;99.90;;;;;;4992892;28;20475;-76
2022/04/20 08:24:44;;;;;;;33.70;31.75;;;13.20;99.90;;;;;;4991959;28;20127;-76
2022/04/20 08:27:14;;;;;;;34.67;32.63;;;12.90;99.90;;;;;;5008909;28;20130;-76
2022/04/20 08:29:42;;;;;;;34.10;31.98;;;12.70;99.90;;;;;;4996025;28;20408;-76
2022/04/20 08:32:09;;;;;;;35.53;33.33;;;12.90;99.90;;;;;;4969998;28;20112;-76
2022/04/20 08:34:37;;;;;;;35.83;33.75;;;12.60;99.90;;;;;;4986808;28;20049;-76
2022/04/20 08:37:23;;;;;;;35.85;33.75;;;12.50;99.90;;;;;;4995932;28;20165;-76
2022/04/20 08:39:50;;;;;;;35.40;33.40;;;12.90;99.90;;;;;;4991463;28;20054;-76
2022/04/20 08:42:20;;;;;;;36.08;33.78;;;13.10;99.90;;;;;;4988551;28;20064;-75
2022/04/20 08:44:51;;;;;;;34.58;32.42;;;13.60;99.90;;;;;;4955938;28;20047;-76
2022/04/20 08:47:21;;;;;;;34.85;32.83;;;13.60;99.90;;;;;;4968884;28;20080;-76
2022/04/20 08:49:49;;;;;;;36.35;34.05;;;13.90;99.90;;;;;;4978467;28;20041;-77
2022/04/20 08:52:38;;;;;;;35.85;33.60;;;14.20;99.90;;;;;;4971811;28;20053;-77
2022/04/20 08:55:09;;;;;;;36.10;33.70;;;14.20;99.90;;;;;;4990778;28;20573;-76
2022/04/20 08:57:37;;;;;;;36.53;34.42;;;14.90;99.90;;;;;;5018767;28;20041;-76
2022/04/20 09:00:07;;;;;;;35.72;33.40;;;14.80;99.90;;;;;;4974048;28;20054;-77
2022/04/20 09:02:34;;;;;;;37.53;35.38;;;14.30;99.90;;;;;;4972554;28;20531;-76
2022/04/20 09:05:03;;;;;;;36.08;34.08;;;13.90;99.90;;;;;;5006064;28;20104;-77
2022/04/20 09:07:31;;;;;;;36.55;34.35;;;14.40;99.90;;;;;;5005011;28;20565;-77
2022/04/20 09:09:58;;;;;;;36.33;34.22;;;14.80;99.90;;;;;;5006206;28;20440;-77
2022/04/20 09:12:26;;;;;;;36.35;34.38;;;14.90;99.90;;;;;;5007520;28;20048;-77
2022/04/20 09:14:56;;;;;;;36.30;34.33;;;14.60;99.90;;;;;;5007198;28;20041;-77
2022/04/20 09:17:26;;;;;;;35.22;33.22;;;13.70;99.90;;;;;;5007400;28;20164;-77
2022/04/20 09:19:55;;;;;;;35.85;33.83;;;14.10;99.90;;;;;;5008041;28;20076;-76
2022/04/20 09:22:24;;;;;;;35.38;33.28;;;14.40;99.90;;;;;;5006393;28;20041;-77
2022/04/20 09:25:04;;;;;;;36.28;34.17;;;14.10;99.90;;;;;;4998140;28;21509;-76
2022/04/20 09:27:33;;;;;;;33.17;31.33;;;13.90;99.90;;;;;;4985140;28;20113;-76
2022/04/20 09:30:00;;;;;;;33.67;31.60;;;14.20;99.90;;;;;;4993164;28;20204;-76
2022/04/20 09:32:31;;;;;;;35.80;33.85;;;13.60;99.90;;;;;;5017785;23;20466;-71
2022/04/20 09:34:59;;;;;;;34.05;32.03;;;13.70;99.90;;;;;;4957227;28;20046;-72
2022/04/20 09:37:26;;;;;;;35.15;33.15;;;13.60;99.90;;;;;;4956626;28;20511;-71
2022/04/20 09:39:57;;;;;;;35.80;33.80;;;14.00;99.90;;;;;;4927034;29;20055;-71
2022/04/20 09:42:28;;;;;;;35.72;33.83;;;14.50;99.90;;;;;;4954473;28;20054;-72
2022/04/20 09:45:06;;;;;;;36.00;34.03;;;14.80;99.90;;;;;;4977385;28;20050;-72
2022/04/20 09:50:25;;;;;;;35.88;33.97;;;13.10;99.90;;;;;;4975175;28;20392;-71
2022/04/20 09:52:55;;;;;;;32.90;30.90;;;13.30;99.90;;;;;;4960814;28;20356;-71
2022/04/20 09:55:33;;;;;;;32.88;30.98;;;13.60;99.90;;;;;;4959263;28;20069;-72
2022/04/20 09:58:18;;;;;;;31.60;29.52;;;14.50;99.90;;;;;;4981567;28;20056;-72
2022/04/20 10:00:52;;;;;;;33.65;31.73;;;14.40;99.90;;;;;;4978043;28;20119;-72
2022/04/20 10:03:25;;;;;;;33.33;31.52;;;14.00;99.90;;;;;;4998606;28;20126;-72
2022/04/20 10:05:52;;;;;;;33.08;30.95;;;13.90;99.90;;;;;;4989949;28;20511;-71
2022/04/20 10:08:20;;;;;;;33.15;31.30;;;13.80;99.90;;;;;;4976400;28;20046;-72
2022/04/20 10:10:48;;;;;;;33.00;31.08;;;13.50;99.90;;;;;;4976870;28;20050;-72
2022/04/20 10:13:16;;;;;;;31.98;30.00;;;13.90;99.90;;;;;;4977145;28;20418;-71
2022/04/20 10:18:34;;;;;;;32.33;30.30;;;14.60;99.90;;;;;;4978430;28;20136;-72
2022/04/20 10:21:02;;;;;;;33.25;31.23;;;14.80;99.90;;;;;;4957779;28;20052;-71
2022/04/20 10:23:29;;;;;;;32.95;30.98;;;14.20;99.90;;;;;;4958796;28;20058;-71
2022/04/20 10:25:59;;;;;;;33.45;31.08;;;14.50;99.90;;;;;;4960076;28;20053;-72
2022/04/20 10:28:49;;;;;;;33.42;31.48;;;14.40;99.90;;;;;;4976644;28;20111;-71
2022/04/20 10:31:40;;;;;;;33.47;31.63;;;14.30;99.90;;;;;;4939736;28;20172;-72
2022/04/20 10:34:16;;;;;;;34.10;31.95;;;13.50;99.90;;;;;;4962804;28;20340;-71
2022/04/20 10:37:04;;;;;;;31.58;29.67;;;13.30;99.90;;;;;;4980644;28;20153;-72
2022/04/20 10:39:40;;;;;;;32.75;30.85;;;14.00;99.90;;;;;;4956840;28;20042;-70
2022/04/20 10:42:17;;;;;;;33.80;31.80;;;14.40;99.90;;;;;;4942472;28;20719;-73
2022/04/20 10:44:58;;;;;;;32.17;30.23;;;14.40;99.90;;;;;;4945291;28;20042;-72
2022/04/20 10:47:31;;;;;;;33.13;31.08;;;14.30;99.90;;;;;;4978784;28;20876;-72
2022/04/20 10:50:18;;;;;;;32.72;30.80;;;14.30;99.90;;;;;;4954885;28;20096;-72
2022/04/20 10:52:53;;;;;;;33.55;31.52;;;14.20;99.90;;;;;;4963459;28;20081;-72
2022/04/20 10:55:44;;;;;;;32.60;30.63;;;13.90;99.90;;;;;;4961866;28;20050;-72
2022/04/20 10:58:19;;;;;;;32.80;30.83;;;14.70;99.90;;;;;;4982030;28;20046;-72
2022/04/20 11:00:46;;;;;;;32.70;30.40;;;14.80;99.90;;;;;;4999587;28;20388;-71
2022/04/20 11:03:13;;;;;;;32.35;30.25;;;14.90;99.90;;;;;;4983084;28;20096;-72
2022/04/20 11:05:55;;;;;;;31.85;29.85;;;14.20;99.90;;;;;;4962282;28;20043;-72
2022/04/20 11:08:25;;;;;;;34.42;31.90;;;14.00;99.90;;;;;;4969709;28;20491;-70
2022/04/20 11:20:01;;;;;;;32.42;30.55;;;14.60;99.90;;;;;;4978997;28;20057;-71
2022/04/20 11:22:28;;;;;;;33.50;31.50;;;14.30;99.90;;;;;;4963077;28;20082;-71
2022/04/20 11:25:06;;;;;;;32.20;30.30;;;14.30;99.90;;;;;;4961752;28;20055;-70
2022/04/20 11:27:37;;;;;;;33.97;31.88;;;14.10;99.90;;;;;;4974473;28;20054;-68
2022/04/20 11:30:05;;;;;;;32.63;30.63;;;14.10;99.90;;;;;;4973145;28;20050;-71
2022/04/20 11:32:32;;;;;;;32.85;30.95;;;13.80;99.90;;;;;;4961418;28;20486;-71
2022/04/20 11:35:12;;;;;;;35.65;33.45;;;14.50;99.90;;;;;;4963222;28;20053;-70
2022/04/20 11:37:39;;;;;;;33.17;31.10;;;14.70;99.90;;;;;;4976155;28;20042;-70
2022/04/20 11:40:13;;;;;;;33.90;31.80;;;14.80;99.90;;;;;;4972664;28;20116;-73
2022/04/20 11:42:42;;;;;;;34.15;32.05;;;15.10;99.90;;;;;;4962032;28;20589;-72
2022/04/20 11:45:11;;;;;;;34.63;32.47;;;14.30;99.90;;;;;;4979177;28;20066;-71
2022/04/20 11:47:39;;;;;;;34.28;31.98;;;14.30;99.90;;;;;;4973643;28;20086;-71
2022/04/20 11:50:09;;;;;;;34.58;32.42;;;14.50;99.90;;;;;;4950926;28;20602;-71
2022/04/20 11:53:00;;;;;;;35.88;33.70;;;14.40;99.90;;;;;;4959736;28;20578;-72
2022/04/20 11:55:53;;;;;;;;;;;14.80;99.90;;;;;;4960956;28;20121;-72
2022/04/20 11:58:20;;;;;;;32.50;30.55;;;15.20;99.90;;;;;;4979023;28;20094;-71
2022/04/20 12:00:46;;;;;;;32.42;30.25;;;14.30;99.90;;;;;;4978969;28;20523;-73
2022/04/20 12:03:13;;;;;;;31.25;29.27;;;14.60;99.90;;;;;;4979797;28;20042;-72
2022/04/20 12:05:41;;;;;;;30.73;28.83;;;14.70;99.90;;;;;;4980134;28;20356;-71
2022/04/20 12:08:09;;;;;;;31.15;29.13;;;14.70;99.90;;;;;;4979050;28;20034;-71
2022/04/20 12:10:38;;;;;;;32.05;29.98;;;14.70;99.90;;;;;;4977209;28;20050;-71
2022/04/20 12:13:07;;;;;;;32.25;30.33;;;14.50;99.90;;;;;;4980058;28;20050;-72
2022/04/20 12:15:34;;;;;;;32.85;30.77;;;14.60;99.90;;;;;;4994237;28;20050;-71
2022/04/20 12:18:07;;;;;;;32.85;30.58;;;14.50;99.90;;;;;;4990117;28;20054;-70
2022/04/20 12:20:34;;;;;;;32.70;30.65;;;14.50;99.90;;;;;;4977292;28;20054;-72
2022/04/20 12:23:05;;;;;;;33.50;31.27;;;14.60;99.90;;;;;;4978165;28;20054;-71
2022/04/20 12:25:31;;;;;;;34.40;32.10;;;14.50;99.90;;;;;;4961228;28;20112;-71
2022/04/20 12:28:35;;;;;;;34.92;32.35;;;14.40;99.90;;;;;;4967449;28;20537;-70
2022/04/20 12:30:45;;;;;;;31.77;29.88;;;14.70;99.90;;;;;;4977546;28;20108;-72
2022/04/20 12:33:22;;;;;;;33.42;31.42;;;15.10;99.90;;;;;;4978574;28;20062;-70
2022/04/20 12:36:08;;;;;;;32.28;30.15;;;14.50;99.90;;;;;;4960203;28;20087;-71
2022/04/20 12:38:47;;;;;;;33.90;31.85;;;14.70;99.90;;;;;;4974323;28;20896;-70
2022/04/20 12:41:36;;;;;;;32.92;30.80;;;15.10;99.90;;;;;;4978520;28;20450;-72
2022/04/20 12:44:35;;;;;;;33.53;31.40;;;14.80;99.90;;;;;;4961839;28;20062;-71
2022/04/20 12:47:21;;;;;;;35.40;33.40;;;14.80;99.90;;;;;;4953150;28;20046;-70
2022/04/20 12:49:48;;;;;;;34.05;32.25;;;14.50;99.90;;;;;;4968638;28;20112;-71
2022/04/20 12:52:17;;;;;;;34.50;32.50;;;14.80;99.90;;;;;;4960700;28;20046;-71
2022/04/20 12:54:53;;;;;;;34.47;32.45;;;14.40;99.90;;;;;;4977710;28;20050;-71
2022/04/20 13:03:16;;;;;;;33.33;31.63;;;14.90;99.90;;;;;;4979477;28;20218;-71
2022/04/20 13:05:44;;;;;;;33.40;31.45;;;14.70;99.90;;;;;;4958707;28;20047;-72
2022/04/20 13:08:13;;;;;;;34.83;32.78;;;14.50;99.90;;;;;;4957379;28;20475;-71
2022/04/20 13:10:42;;;;;;;34.65;32.58;;;14.40;99.90;;;;;;4959433;28;20136;-72
2022/04/20 13:13:10;;;;;;;32.45;30.52;;;15.10;99.90;;;;;;4978549;28;20061;-72
2022/04/20 13:15:40;;;;;;;32.60;30.90;;;15.40;99.90;;;;;;4960415;28;20159;-70
2022/04/20 13:34:24;;;;;;;34.13;32.15;;;13.90;99.90;;;;;;5120537;27;20922;-69
2022/04/20 13:36:50;;;;;;;34.42;32.33;;;14.80;99.90;;;;;;5050874;23;20557;-74
2022/04/20 13:39:17;;;;;;;35.50;33.20;;;14.90;99.90;;;;;;4958652;28;20073;-74
2022/04/20 13:41:44;;;;;;;33.78;31.88;;;14.60;99.90;;;;;;4949414;28;20047;-75
2022/04/20 13:44:11;;;;;;;33.42;31.52;;;14.60;99.90;;;;;;4954003;28;20071;-75
2022/04/20 13:46:38;;;;;;;36.45;34.38;;;15.00;99.90;;;;;;4948577;28;20126;-73
2022/04/20 13:49:04;;;;;;;33.03;31.13;;;14.70;99.90;;;;;;4952883;28;20121;-74
2022/04/20 13:51:31;;;;;;;34.47;32.30;;;14.60;99.90;;;;;;4942968;28;20150;-74
2022/04/20 13:53:58;;;;;;;33.97;32.08;;;14.40;99.90;;;;;;4946118;28;20039;-73